Terminal Aerodrome Forecast
Issued by NWS Wilmington, NC

Home | Current Version | Previous Version | Text Only | Print | Product List | Glossary On
Versions: 1 2 3 4 5 6 7 8 9 10 11 12 13 14 15 16 17 18 19 20 21 22 23 24 25 26 27 28 29 30 31 32 33 34 35
012
FTUS42 KILM 032320
TAFLBT
TAF
KLBT 032320Z 0400/0424 18006KT P6SM FEW040 SCT100
     FM040500 20005KT P6SM VCSH BKN040
     FM041000 31005KT P6SM SCT020
     FM041600 29010KT P6SM BKN030=

USA.gov is the U.S. government's official web portal to all federal, state and local government web resources and services.